createdAt,value
2023-05-20T00:00:17.381Z,1033.08
2023-05-20T00:01:17.336Z,1033.04
2023-05-20T00:02:17.388Z,1033.12
2023-05-20T00:03:17.458Z,1033.09
2023-05-20T00:04:17.411Z,1033.12
2023-05-20T00:05:17.341Z,1033.13
2023-05-20T00:06:17.338Z,1033.16
2023-05-20T00:07:17.332Z,1033.18
2023-05-20T00:08:17.341Z,1033.15
2023-05-20T00:09:17.374Z,1033.17
2023-05-20T00:10:17.342Z,1033.17
2023-05-20T00:11:17.342Z,1033.19
2023-05-20T00:12:17.342Z,1033.19
2023-05-20T00:13:17.341Z,1033.18
2023-05-20T00:14:17.341Z,1033.18
2023-05-20T00:15:17.341Z,1033.21
2023-05-20T00:16:17.418Z,1033.16
2023-05-20T00:17:17.341Z,1033.18
2023-05-20T00:18:17.354Z,1033.16
2023-05-20T00:19:17.378Z,1033.16
2023-05-20T00:20:17.340Z,1033.18
2023-05-20T00:21:17.351Z,1033.19
2023-05-20T00:22:17.354Z,1033.19
2023-05-20T00:23:17.360Z,1033.18
2023-05-20T00:24:17.346Z,1033.19
2023-05-20T00:25:17.346Z,1033.18
2023-05-20T00:26:17.352Z,1033.19
2023-05-20T00:27:17.352Z,1033.20
2023-05-20T00:28:17.351Z,1033.24
2023-05-20T00:29:17.360Z,1033.20
2023-05-20T00:30:17.372Z,1033.22
2023-05-20T00:31:17.358Z,1033.21
2023-05-20T00:32:17.470Z,1033.22
2023-05-20T00:33:17.430Z,1033.24
2023-05-20T00:34:17.361Z,1033.22
2023-05-20T00:35:17.348Z,1033.23
2023-05-20T00:36:17.353Z,1033.25
2023-05-20T00:37:17.351Z,1033.24
2023-05-20T00:38:17.354Z,1033.28
2023-05-20T00:39:17.352Z,1033.26
2023-05-20T00:40:17.351Z,1033.25
2023-05-20T00:41:17.359Z,1033.25
2023-05-20T00:42:17.352Z,1033.30
2023-05-20T00:43:17.353Z,1033.27
2023-05-20T00:44:17.355Z,1033.27
2023-05-20T00:45:17.352Z,1033.27
2023-05-20T00:46:17.434Z,1033.27
2023-05-20T00:47:17.354Z,1033.28
2023-05-20T00:48:17.379Z,1033.27
2023-05-20T00:49:17.396Z,1033.26
2023-05-20T00:50:17.358Z,1033.25
2023-05-20T00:51:17.361Z,1033.25
2023-05-20T00:52:17.360Z,1033.27
2023-05-20T00:53:17.364Z,1033.25
2023-05-20T00:54:17.360Z,1033.23
2023-05-20T00:55:17.373Z,1033.26
2023-05-20T00:56:17.365Z,1033.22
2023-05-20T00:57:17.361Z,1033.23
2023-05-20T00:58:17.367Z,1033.23
2023-05-20T00:59:17.372Z,1033.25
2023-05-20T01:00:17.367Z,1033.24
2023-05-20T01:01:17.436Z,1033.31
2023-05-20T01:02:17.395Z,1033.29
2023-05-20T01:03:17.429Z,1033.30
2023-05-20T01:04:17.387Z,1033.31
2023-05-20T01:05:17.378Z,1033.28
2023-05-20T01:06:17.367Z,1033.33
2023-05-20T01:07:17.376Z,1033.32
2023-05-20T01:08:17.367Z,1033.28
2023-05-20T01:09:17.365Z,1033.27
2023-05-20T01:10:17.365Z,1033.29
2023-05-20T01:11:17.363Z,1033.30
2023-05-20T01:12:17.371Z,1033.33
2023-05-20T01:13:17.371Z,1033.35
2023-05-20T01:14:17.369Z,1033.38
2023-05-20T01:15:17.368Z,1033.37
2023-05-20T01:16:17.398Z,1033.43
2023-05-20T01:17:17.361Z,1033.44
2023-05-20T01:18:17.365Z,1033.42
2023-05-20T01:19:17.409Z,1033.44
2023-05-20T01:20:17.393Z,1033.45
2023-05-20T01:21:17.366Z,1033.43
2023-05-20T01:22:17.372Z,1033.44
2023-05-20T01:23:17.397Z,1033.46
2023-05-20T01:24:17.375Z,1033.46
2023-05-20T01:25:17.373Z,1033.48
2023-05-20T01:26:17.375Z,1033.51
2023-05-20T01:27:17.369Z,1033.49
2023-05-20T01:28:17.376Z,1033.54
2023-05-20T01:29:17.371Z,1033.50
2023-05-20T01:30:17.374Z,1033.51
2023-05-20T01:31:17.475Z,1033.48
2023-05-20T01:32:17.379Z,1033.49
2023-05-20T01:33:17.372Z,1033.49
2023-05-20T01:34:17.527Z,1033.48
2023-05-20T01:35:17.370Z,1033.49
2023-05-20T01:36:17.397Z,1033.46
2023-05-20T01:37:17.377Z,1033.45
2023-05-20T01:38:17.381Z,1033.51
2023-05-20T01:39:17.378Z,1033.48
2023-05-20T01:40:17.375Z,1033.48
2023-05-20T01:41:17.386Z,1033.51
2023-05-20T01:42:17.386Z,1033.52
2023-05-20T01:43:17.812Z,1033.54
2023-05-20T01:44:17.386Z,1033.54
2023-05-20T01:45:17.390Z,1033.53
2023-05-20T01:46:17.496Z,1033.54
2023-05-20T01:47:17.382Z,1033.57
2023-05-20T01:48:17.384Z,1033.53
2023-05-20T01:49:17.380Z,1033.55
2023-05-20T01:50:17.384Z,1033.54
2023-05-20T01:51:17.391Z,1033.53
2023-05-20T01:52:17.408Z,1033.56
2023-05-20T01:53:17.391Z,1033.52
2023-05-20T01:54:17.382Z,1033.55
2023-05-20T01:55:17.390Z,1033.57
2023-05-20T01:56:17.380Z,1033.57
2023-05-20T01:57:17.388Z,1033.57
2023-05-20T01:58:17.384Z,1033.57
2023-05-20T01:59:17.396Z,1033.56
2023-05-20T02:00:17.389Z,1033.61
2023-05-20T02:01:17.416Z,1033.59
2023-05-20T02:02:17.482Z,1033.59
2023-05-20T02:03:17.439Z,1033.58
2023-05-20T02:04:17.387Z,1033.61
2023-05-20T02:05:17.386Z,1033.57
2023-05-20T02:06:17.384Z,1033.59
2023-05-20T02:07:17.393Z,1033.60
2023-05-20T02:08:17.419Z,1033.60
2023-05-20T02:09:17.389Z,1033.60
2023-05-20T02:10:17.390Z,1033.57
2023-05-20T02:11:17.405Z,1033.59
2023-05-20T02:12:17.451Z,1033.61
2023-05-20T02:13:17.403Z,1033.64
2023-05-20T02:14:17.396Z,1033.66
2023-05-20T02:15:17.406Z,1033.63
2023-05-20T02:16:17.414Z,1033.67
2023-05-20T02:17:17.398Z,1033.65
2023-05-20T02:18:17.395Z,1033.64
2023-05-20T02:19:17.449Z,1033.64
2023-05-20T02:20:17.397Z,1033.65
2023-05-20T02:21:17.405Z,1033.67
2023-05-20T02:22:17.395Z,1033.63
2023-05-20T02:23:17.410Z,1033.68
2023-05-20T02:24:17.434Z,1033.66
2023-05-20T02:25:17.405Z,1033.66
2023-05-20T02:26:17.402Z,1033.70
2023-05-20T02:27:17.404Z,1033.68
2023-05-20T02:28:17.409Z,1033.71
2023-05-20T02:29:17.408Z,1033.71
2023-05-20T02:30:17.432Z,1033.66
2023-05-20T02:31:17.415Z,1033.70
2023-05-20T02:32:17.405Z,1033.69
2023-05-20T02:33:17.490Z,1033.70
2023-05-20T02:34:17.480Z,1033.69
2023-05-20T02:35:17.406Z,1033.67
2023-05-20T02:36:17.412Z,1033.66
2023-05-20T02:37:17.414Z,1033.67
2023-05-20T02:38:17.408Z,1033.63
2023-05-20T02:39:17.436Z,1033.65
2023-05-20T02:40:17.433Z,1033.65
2023-05-20T02:41:17.412Z,1033.64
2023-05-20T02:42:17.409Z,1033.66
2023-05-20T02:43:17.420Z,1033.64
2023-05-20T02:44:17.414Z,1033.61
2023-05-20T02:45:17.416Z,1033.62
2023-05-20T02:46:17.464Z,1033.63
2023-05-20T02:47:17.427Z,1033.63
2023-05-20T02:48:17.406Z,1033.62
2023-05-20T02:49:17.416Z,1033.62
2023-05-20T02:50:17.418Z,1033.64
2023-05-20T02:51:17.432Z,1033.70
2023-05-20T02:52:17.410Z,1033.65
2023-05-20T02:53:17.417Z,1033.68
2023-05-20T02:54:17.413Z,1033.65
2023-05-20T02:55:17.414Z,1033.67
2023-05-20T02:56:17.449Z,1033.67
2023-05-20T02:57:17.420Z,1033.67
2023-05-20T02:58:17.415Z,1033.65
2023-05-20T02:59:17.425Z,1033.67
2023-05-20T03:00:17.421Z,1033.67
2023-05-20T03:01:17.461Z,1033.64
2023-05-20T03:02:17.420Z,1033.67
2023-05-20T03:03:17.420Z,1033.66
2023-05-20T03:04:17.452Z,1033.68
2023-05-20T03:05:17.432Z,1033.69
2023-05-20T03:06:17.426Z,1033.69
2023-05-20T03:07:17.433Z,1033.74
2023-05-20T03:08:17.421Z,1033.74
2023-05-20T03:09:17.430Z,1033.72
2023-05-20T03:10:17.418Z,1033.73
2023-05-20T03:11:17.427Z,1033.74
2023-05-20T03:12:17.446Z,1033.77
2023-05-20T03:13:17.433Z,1033.77
2023-05-20T03:14:17.423Z,1033.76
2023-05-20T03:15:17.424Z,1033.80
2023-05-20T03:16:17.442Z,1033.83
2023-05-20T03:17:17.452Z,1033.81
2023-05-20T03:18:17.423Z,1033.87
2023-05-20T03:19:17.460Z,1033.85
2023-05-20T03:20:17.422Z,1033.85
2023-05-20T03:21:17.420Z,1033.86
2023-05-20T03:22:17.421Z,1033.85
2023-05-20T03:23:17.430Z,1033.80
2023-05-20T03:24:17.427Z,1033.79
2023-05-20T03:25:17.425Z,1033.80
2023-05-20T03:26:17.425Z,1033.77
2023-05-20T03:27:17.426Z,1033.76
2023-05-20T03:28:17.454Z,1033.78
2023-05-20T03:29:17.423Z,1033.77
2023-05-20T03:30:17.426Z,1033.74
2023-05-20T03:31:17.524Z,1033.74
2023-05-20T03:32:17.545Z,1033.77
2023-05-20T03:33:17.433Z,1033.78
2023-05-20T03:34:17.423Z,1033.79
2023-05-20T03:35:17.444Z,1033.80
2023-05-20T03:36:17.443Z,1033.82
2023-05-20T03:37:17.431Z,1033.81
2023-05-20T03:38:17.428Z,1033.80
2023-05-20T03:39:17.432Z,1033.81
2023-05-20T03:40:17.444Z,1033.86
2023-05-20T03:41:17.440Z,1033.81
2023-05-20T03:42:17.434Z,1033.86
2023-05-20T03:43:17.439Z,1033.86
2023-05-20T03:44:17.455Z,1033.84
2023-05-20T03:45:17.435Z,1033.82
2023-05-20T03:46:17.454Z,1033.82
2023-05-20T03:47:17.432Z,1033.84
2023-05-20T03:48:17.436Z,1033.84
2023-05-20T03:49:17.447Z,1033.84
2023-05-20T03:50:17.431Z,1033.86
2023-05-20T03:51:17.439Z,1033.85
2023-05-20T03:52:17.444Z,1033.87
2023-05-20T03:53:17.440Z,1033.87
2023-05-20T03:54:17.482Z,1033.88
2023-05-20T03:55:17.450Z,1033.87
2023-05-20T03:56:17.436Z,1033.91
2023-05-20T03:57:17.466Z,1033.90
2023-05-20T03:58:17.467Z,1033.86
2023-05-20T03:59:17.737Z,1033.90
2023-05-20T04:00:17.456Z,1033.86
2023-05-20T04:01:17.446Z,1033.86
2023-05-20T04:02:17.469Z,1033.86
2023-05-20T04:03:17.466Z,1033.89
2023-05-20T04:04:17.528Z,1033.85
2023-05-20T04:05:17.452Z,1033.86
2023-05-20T04:06:17.438Z,1033.84
2023-05-20T04:07:17.445Z,1033.84
2023-05-20T04:08:17.440Z,1033.86
2023-05-20T04:09:17.449Z,1033.88
2023-05-20T04:10:17.442Z,1033.86
2023-05-20T04:11:17.448Z,1033.87
2023-05-20T04:12:17.448Z,1033.86
2023-05-20T04:13:17.452Z,1033.84
2023-05-20T04:14:17.451Z,1033.87
2023-05-20T04:15:17.449Z,1033.84
2023-05-20T04:16:17.608Z,1033.85
2023-05-20T04:17:17.444Z,1033.86
2023-05-20T04:18:17.438Z,1033.79
2023-05-20T04:19:17.524Z,1033.77
2023-05-20T04:20:17.469Z,1033.79
2023-05-20T04:21:17.456Z,1033.80
2023-05-20T04:22:17.445Z,1033.81
2023-05-20T04:23:17.447Z,1033.83
2023-05-20T04:24:17.450Z,1033.86
2023-05-20T04:25:17.446Z,1033.88
2023-05-20T04:26:17.463Z,1033.87
2023-05-20T04:27:17.448Z,1033.85
2023-05-20T04:28:17.452Z,1033.87
2023-05-20T04:29:17.451Z,1033.86
2023-05-20T04:30:17.455Z,1033.88
2023-05-20T04:31:17.543Z,1033.91
2023-05-20T04:32:17.467Z,1033.87
2023-05-20T04:33:17.453Z,1033.92
2023-05-20T04:34:17.456Z,1033.88
2023-05-20T04:35:17.455Z,1033.89
2023-05-20T04:36:17.470Z,1033.91
2023-05-20T04:37:17.451Z,1033.93
2023-05-20T04:38:17.480Z,1033.96
2023-05-20T04:39:17.755Z,1033.98
2023-05-20T04:40:17.464Z,1033.98
2023-05-20T04:41:17.464Z,1033.97
2023-05-20T04:42:17.458Z,1034.00
2023-05-20T04:43:17.460Z,1033.95
2023-05-20T04:44:17.456Z,1033.99
2023-05-20T04:45:17.462Z,1033.96
2023-05-20T04:46:17.481Z,1033.97
2023-05-20T04:47:17.460Z,1033.95
2023-05-20T04:48:17.482Z,1033.97
2023-05-20T04:49:17.512Z,1033.99
2023-05-20T04:50:17.457Z,1033.99
2023-05-20T04:51:17.461Z,1033.99
2023-05-20T04:52:17.461Z,1033.99
2023-05-20T04:53:17.487Z,1033.98
2023-05-20T04:54:17.461Z,1033.99
2023-05-20T04:55:17.470Z,1033.96
2023-05-20T04:56:17.460Z,1033.96
2023-05-20T04:57:17.468Z,1033.97
2023-05-20T04:58:17.461Z,1033.97
2023-05-20T04:59:17.467Z,1033.97
2023-05-20T05:00:17.469Z,1033.98
2023-05-20T05:01:17.498Z,1033.97
2023-05-20T05:02:17.467Z,1033.97
2023-05-20T05:03:17.527Z,1033.98
2023-05-20T05:04:17.557Z,1033.95
2023-05-20T05:05:17.472Z,1033.95
2023-05-20T05:06:17.467Z,1033.97
2023-05-20T05:07:17.473Z,1033.95
2023-05-20T05:08:17.539Z,1033.94
2023-05-20T05:09:17.479Z,1033.97
2023-05-20T05:10:17.468Z,1033.95
2023-05-20T05:11:17.482Z,1033.99
2023-05-20T05:12:17.472Z,1034.00
2023-05-20T05:13:17.488Z,1034.01
2023-05-20T05:14:17.496Z,1033.96
2023-05-20T05:15:17.487Z,1034.02
2023-05-20T05:16:17.512Z,1034.03
2023-05-20T05:17:17.488Z,1034.01
2023-05-20T05:18:17.472Z,1033.99
2023-05-20T05:19:17.788Z,1034.03
2023-05-20T05:20:17.508Z,1034.04
2023-05-20T05:21:17.481Z,1034.04
2023-05-20T05:22:17.486Z,1034.05
2023-05-20T05:23:17.483Z,1034.01
2023-05-20T05:24:17.486Z,1034.06
2023-05-20T05:25:17.482Z,1034.04
2023-05-20T05:26:17.486Z,1034.05
2023-05-20T05:27:17.487Z,1034.02
2023-05-20T05:28:17.486Z,1034.05
2023-05-20T05:29:17.491Z,1034.04
2023-05-20T05:30:17.511Z,1034.00
2023-05-20T05:31:17.483Z,1034.03
2023-05-20T05:32:17.588Z,1034.02
2023-05-20T05:33:17.593Z,1034.03
2023-05-20T05:34:17.485Z,1034.00
2023-05-20T05:35:17.490Z,1034.00
2023-05-20T05:36:17.506Z,1033.99
2023-05-20T05:37:17.494Z,1033.98
2023-05-20T05:38:17.496Z,1033.95
2023-05-20T05:39:17.501Z,1033.96
2023-05-20T05:40:17.511Z,1033.95
2023-05-20T05:41:17.493Z,1033.98
2023-05-20T05:42:17.496Z,1034.00
2023-05-20T05:43:17.489Z,1033.99
2023-05-20T05:44:17.500Z,1033.98
2023-05-20T05:45:17.504Z,1033.97
2023-05-20T05:46:17.543Z,1033.96
2023-05-20T05:47:17.534Z,1033.95
2023-05-20T05:48:17.492Z,1034.04
2023-05-20T05:49:17.488Z,1033.98
2023-05-20T05:50:17.496Z,1033.96
2023-05-20T05:51:17.488Z,1033.95
2023-05-20T05:52:17.520Z,1033.95
2023-05-20T05:53:17.503Z,1033.92
2023-05-20T05:54:17.498Z,1033.94
2023-05-20T05:55:17.501Z,1033.89
2023-05-20T05:56:17.597Z,1033.91
2023-05-20T05:57:17.500Z,1033.93
2023-05-20T05:58:17.490Z,1033.96
2023-05-20T05:59:17.504Z,1033.94
2023-05-20T06:00:17.502Z,1033.93
2023-05-20T06:01:17.533Z,1033.91
2023-05-20T06:02:17.555Z,1033.91
2023-05-20T06:03:17.623Z,1033.94
2023-05-20T06:04:17.555Z,1033.94
2023-05-20T06:05:17.509Z,1033.91
2023-05-20T06:06:17.494Z,1033.92
2023-05-20T06:07:17.500Z,1033.93
2023-05-20T06:08:17.526Z,1033.92
2023-05-20T06:09:17.508Z,1033.92
2023-05-20T06:10:17.498Z,1033.90
2023-05-20T06:11:17.501Z,1033.89
2023-05-20T06:12:17.504Z,1033.89
2023-05-20T06:13:17.514Z,1033.91
2023-05-20T06:14:17.508Z,1033.93
2023-05-20T06:15:17.497Z,1033.88
2023-05-20T06:16:17.549Z,1033.91
2023-05-20T06:17:17.505Z,1033.85
2023-05-20T06:18:17.502Z,1033.88
2023-05-20T06:19:18.057Z,1033.88
2023-05-20T06:20:17.510Z,1033.88
2023-05-20T06:21:17.511Z,1033.91
2023-05-20T06:22:17.512Z,1033.84
2023-05-20T06:23:17.523Z,1033.84
2023-05-20T06:24:17.536Z,1033.83
2023-05-20T06:25:17.504Z,1033.84
2023-05-20T06:26:17.534Z,1033.81
2023-05-20T06:27:17.515Z,1033.80
2023-05-20T06:28:17.505Z,1033.84
2023-05-20T06:29:17.510Z,1033.87
2023-05-20T06:30:17.532Z,1033.84
2023-05-20T06:31:17.543Z,1033.86
2023-05-20T06:32:17.514Z,1033.84
2023-05-20T06:33:17.516Z,1033.85
2023-05-20T06:34:17.519Z,1033.83
2023-05-20T06:35:17.522Z,1033.86
2023-05-20T06:36:17.519Z,1033.82
2023-05-20T06:37:17.515Z,1033.82
2023-05-20T06:38:17.613Z,1033.86
2023-05-20T06:39:17.668Z,1033.85
2023-05-20T06:40:17.543Z,1033.82
2023-05-20T06:41:17.523Z,1033.85
2023-05-20T06:42:17.519Z,1033.85
2023-05-20T06:43:17.516Z,1033.83
2023-05-20T06:44:17.578Z,1033.84
2023-05-20T06:45:17.521Z,1033.87
2023-05-20T06:46:17.537Z,1033.88
2023-05-20T06:47:17.518Z,1033.86
2023-05-20T06:48:17.525Z,1033.86
2023-05-20T06:49:17.530Z,1033.88
2023-05-20T06:50:17.525Z,1033.87
2023-05-20T06:51:17.524Z,1033.88
2023-05-20T06:52:17.522Z,1033.84
2023-05-20T06:53:17.528Z,1033.87
2023-05-20T06:54:17.533Z,1033.82
2023-05-20T06:55:17.528Z,1033.87
2023-05-20T06:56:17.557Z,1033.88
2023-05-20T06:57:17.530Z,1033.88
2023-05-20T06:58:17.548Z,1033.88
2023-05-20T06:59:17.532Z,1033.90
2023-05-20T07:00:17.570Z,1033.94
2023-05-20T07:01:18.538Z,1033.89
2023-05-20T07:02:17.531Z,1033.93
2023-05-20T07:03:17.637Z,1033.90
2023-05-20T07:04:17.633Z,1033.90
2023-05-20T07:05:17.526Z,1033.88
2023-05-20T07:06:17.526Z,1033.88
2023-05-20T07:07:17.615Z,1033.92
2023-05-20T07:08:17.535Z,1033.91
2023-05-20T07:09:17.841Z,1033.89
2023-05-20T07:10:17.534Z,1033.91
2023-05-20T07:11:17.529Z,1033.89
2023-05-20T07:12:17.558Z,1033.93
2023-05-20T07:13:17.540Z,1033.88
2023-05-20T07:14:17.553Z,1033.89
2023-05-20T07:15:17.534Z,1033.88
2023-05-20T07:16:17.585Z,1033.90
2023-05-20T07:17:17.541Z,1033.87
2023-05-20T07:18:17.538Z,1033.84
2023-05-20T07:19:17.583Z,1033.88
2023-05-20T07:20:17.539Z,1033.89
2023-05-20T07:21:17.539Z,1033.87
2023-05-20T07:22:17.540Z,1033.86
2023-05-20T07:23:17.551Z,1033.87
2023-05-20T07:24:17.537Z,1033.90
2023-05-20T07:25:17.540Z,1033.86
2023-05-20T07:26:17.550Z,1033.88
2023-05-20T07:27:17.552Z,1033.86
2023-05-20T07:28:17.568Z,1033.88
2023-05-20T07:29:17.545Z,1033.86
2023-05-20T07:30:17.556Z,1033.86
2023-05-20T07:31:17.579Z,1033.85
2023-05-20T07:32:17.546Z,1033.86
2023-05-20T07:33:17.573Z,1033.86
2023-05-20T07:34:17.543Z,1033.93
2023-05-20T07:35:17.547Z,1033.95
2023-05-20T07:36:17.549Z,1033.95
2023-05-20T07:37:17.546Z,1033.98
2023-05-20T07:38:17.546Z,1033.99
2023-05-20T07:39:17.545Z,1034.01
2023-05-20T07:40:17.565Z,1033.98
2023-05-20T07:41:17.549Z,1033.99
2023-05-20T07:42:17.569Z,1033.99
2023-05-20T07:43:17.550Z,1034.01
2023-05-20T07:44:17.630Z,1033.98
2023-05-20T07:45:17.558Z,1034.01
2023-05-20T07:46:19.998Z,1034.00
2023-05-20T07:47:17.553Z,1033.99
2023-05-20T07:48:17.564Z,1033.98
2023-05-20T07:49:17.551Z,1033.99
2023-05-20T07:50:17.563Z,1033.97
2023-05-20T07:51:17.574Z,1033.96
2023-05-20T07:52:17.557Z,1034.01
2023-05-20T07:53:17.565Z,1033.97
2023-05-20T07:54:17.555Z,1033.99
2023-05-20T07:55:17.561Z,1033.96
2023-05-20T07:56:17.557Z,1033.96
2023-05-20T07:57:17.562Z,1033.94
2023-05-20T07:58:17.566Z,1033.93
2023-05-20T07:59:17.560Z,1033.98
2023-05-20T08:00:17.590Z,1033.99
2023-05-20T08:01:17.572Z,1033.95
2023-05-20T08:02:17.664Z,1033.98
2023-05-20T08:03:17.742Z,1034.01
2023-05-20T08:04:17.647Z,1033.97
2023-05-20T08:05:17.571Z,1033.94
2023-05-20T08:06:17.571Z,1033.92
2023-05-20T08:07:17.563Z,1033.98
2023-05-20T08:08:17.578Z,1033.96
2023-05-20T08:09:17.579Z,1033.94
2023-05-20T08:10:17.560Z,1033.93
2023-05-20T08:11:17.577Z,1033.90
2023-05-20T08:12:17.581Z,1033.92
2023-05-20T08:13:17.567Z,1033.92
2023-05-20T08:14:17.575Z,1033.97
2023-05-20T08:15:17.574Z,1033.95
2023-05-20T08:16:17.652Z,1033.99
2023-05-20T08:17:17.632Z,1033.99
2023-05-20T08:18:17.583Z,1033.98
2023-05-20T08:19:17.619Z,1033.98
2023-05-20T08:20:17.576Z,1034.02
2023-05-20T08:21:17.570Z,1034.00
2023-05-20T08:22:17.570Z,1034.03
2023-05-20T08:23:17.585Z,1033.96
2023-05-20T08:24:17.576Z,1034.01
2023-05-20T08:25:17.575Z,1033.99
2023-05-20T08:26:17.588Z,1034.06
2023-05-20T08:27:17.579Z,1033.98
2023-05-20T08:28:17.585Z,1033.96
2023-05-20T08:29:17.578Z,1033.98
2023-05-20T08:30:17.578Z,1033.97
2023-05-20T08:31:17.656Z,1033.99
2023-05-20T08:32:17.596Z,1033.98
2023-05-20T08:33:17.581Z,1033.99
2023-05-20T08:34:17.589Z,1033.96
2023-05-20T08:35:17.576Z,1033.94
2023-05-20T08:36:17.596Z,1034.00
2023-05-20T08:37:17.586Z,1034.01
2023-05-20T08:38:17.582Z,1034.01
2023-05-20T08:39:17.584Z,1034.00
2023-05-20T08:40:17.597Z,1033.99
2023-05-20T08:41:17.586Z,1033.98
2023-05-20T08:42:17.592Z,1034.02
2023-05-20T08:43:17.587Z,1033.96
2023-05-20T08:44:17.593Z,1033.98
2023-05-20T08:45:17.595Z,1033.93
2023-05-20T08:46:18.562Z,1033.95
2023-05-20T08:47:17.607Z,1033.94
2023-05-20T08:48:17.665Z,1033.91
2023-05-20T08:49:17.595Z,1033.97
2023-05-20T08:50:17.596Z,1033.97
2023-05-20T08:51:17.610Z,1033.97
2023-05-20T08:52:17.607Z,1033.99
2023-05-20T08:53:17.608Z,1033.99
2023-05-20T08:54:17.594Z,1033.96
2023-05-20T08:55:17.609Z,1033.99
2023-05-20T08:56:17.593Z,1033.99
2023-05-20T08:57:17.604Z,1033.96
2023-05-20T08:58:17.599Z,1034.00
2023-05-20T08:59:17.606Z,1034.03
2023-05-20T09:00:17.614Z,1033.93
2023-05-20T09:01:17.635Z,1033.96
2023-05-20T09:02:17.637Z,1033.97
2023-05-20T09:03:17.668Z,1033.92
2023-05-20T09:04:17.658Z,1033.93
2023-05-20T09:05:17.656Z,1033.94
2023-05-20T09:06:17.616Z,1033.88
2023-05-20T09:07:17.604Z,1033.92
2023-05-20T09:08:17.642Z,1033.92
2023-05-20T09:09:17.765Z,1033.90
2023-05-20T09:10:17.616Z,1033.94
2023-05-20T09:11:17.613Z,1033.91
2023-05-20T09:12:17.607Z,1033.91
2023-05-20T09:13:17.611Z,1033.94
2023-05-20T09:14:17.608Z,1033.87
2023-05-20T09:15:17.620Z,1033.87
2023-05-20T09:16:17.628Z,1033.83
2023-05-20T09:17:17.614Z,1033.85
2023-05-20T09:18:17.613Z,1033.81
2023-05-20T09:19:17.673Z,1033.81
2023-05-20T09:20:17.645Z,1033.79
2023-05-20T09:21:17.618Z,1033.83
2023-05-20T09:22:17.621Z,1033.84
2023-05-20T09:23:17.614Z,1033.80
2023-05-20T09:24:17.618Z,1033.81
2023-05-20T09:25:17.611Z,1033.74
2023-05-20T09:26:17.623Z,1033.78
2023-05-20T09:27:17.628Z,1033.75
2023-05-20T09:28:17.624Z,1033.73
2023-05-20T09:29:17.630Z,1033.75
2023-05-20T09:30:17.622Z,1033.73
2023-05-20T09:31:17.642Z,1033.76
2023-05-20T09:32:17.625Z,1033.79
2023-05-20T09:33:17.627Z,1033.77
2023-05-20T09:34:17.624Z,1033.77
2023-05-20T09:35:17.629Z,1033.82
2023-05-20T09:36:17.648Z,1033.85
2023-05-20T09:37:17.628Z,1033.82
2023-05-20T09:38:17.622Z,1033.76
2023-05-20T09:39:17.644Z,1033.77
2023-05-20T09:40:17.645Z,1033.78
2023-05-20T09:41:17.634Z,1033.82
2023-05-20T09:42:17.633Z,1033.78
2023-05-20T09:43:17.631Z,1033.79
2023-05-20T09:44:17.635Z,1033.76
2023-05-20T09:45:17.637Z,1033.75
2023-05-20T09:46:17.662Z,1033.71
2023-05-20T09:47:17.632Z,1033.76
2023-05-20T09:48:17.697Z,1033.75
2023-05-20T09:49:17.636Z,1033.74
2023-05-20T09:50:17.636Z,1033.73
2023-05-20T09:51:17.636Z,1033.71
2023-05-20T09:52:18.936Z,1033.71
2023-05-20T09:53:17.640Z,1033.73
2023-05-20T09:54:17.644Z,1033.72
2023-05-20T09:55:17.643Z,1033.72
2023-05-20T09:56:17.644Z,1033.68
2023-05-20T09:57:17.657Z,1033.74
2023-05-20T09:58:17.676Z,1033.74
2023-05-20T09:59:17.656Z,1033.71
2023-05-20T10:00:17.821Z,1033.76
2023-05-20T10:01:17.693Z,1033.72
2023-05-20T10:02:17.680Z,1033.72
2023-05-20T10:03:17.709Z,1033.73
2023-05-20T10:04:17.663Z,1033.67
2023-05-20T10:05:17.662Z,1033.66
2023-05-20T10:06:17.677Z,1033.65
2023-05-20T10:07:19.408Z,1033.67
2023-05-20T10:08:17.685Z,1033.67
2023-05-20T10:09:17.672Z,1033.67
2023-05-20T10:10:17.759Z,1033.69
2023-05-20T10:11:17.658Z,1033.62
2023-05-20T10:12:17.675Z,1033.66
2023-05-20T10:13:17.667Z,1033.66
2023-05-20T10:14:17.664Z,1033.62
2023-05-20T10:15:17.672Z,1033.61
2023-05-20T10:16:17.700Z,1033.53
2023-05-20T10:17:17.704Z,1033.56
2023-05-20T10:18:17.669Z,1033.56
2023-05-20T10:19:17.729Z,1033.57
2023-05-20T10:20:17.681Z,1033.58
2023-05-20T10:21:17.686Z,1033.63
2023-05-20T10:22:17.685Z,1033.63
2023-05-20T10:23:17.681Z,1033.57
2023-05-20T10:24:17.800Z,1033.56
2023-05-20T10:25:17.681Z,1033.59
2023-05-20T10:26:17.690Z,1033.57
2023-05-20T10:27:17.688Z,1033.56
2023-05-20T10:28:17.675Z,1033.57
2023-05-20T10:29:17.684Z,1033.58
2023-05-20T10:30:17.680Z,1033.54
2023-05-20T10:31:17.700Z,1033.53
2023-05-20T10:32:17.730Z,1033.57
2023-05-20T10:33:17.722Z,1033.56
2023-05-20T10:34:17.695Z,1033.56
2023-05-20T10:35:17.687Z,1033.55
2023-05-20T10:36:17.691Z,1033.55
2023-05-20T10:37:17.688Z,1033.56
2023-05-20T10:38:17.693Z,1033.54
2023-05-20T10:39:17.729Z,1033.55
2023-05-20T10:40:17.720Z,1033.52
2023-05-20T10:41:17.686Z,1033.54
2023-05-20T10:42:17.688Z,1033.49
2023-05-20T10:43:17.693Z,1033.51
2023-05-20T10:44:17.697Z,1033.45
2023-05-20T10:45:17.714Z,1033.43
2023-05-20T10:46:31.223Z,1033.47
2023-05-20T10:47:25.401Z,1033.44
2023-05-20T10:48:17.796Z,1033.43
2023-05-20T10:49:17.956Z,1033.40
2023-05-20T10:50:17.702Z,1033.42
2023-05-20T10:51:17.696Z,1033.44
2023-05-20T10:52:17.698Z,1033.39
2023-05-20T10:53:32.332Z,1033.37
2023-05-20T10:54:17.700Z,1033.37
2023-05-20T10:55:17.707Z,1033.37
2023-05-20T10:56:17.858Z,1033.33
2023-05-20T10:57:17.714Z,1033.34
2023-05-20T10:58:17.706Z,1033.35
2023-05-20T10:59:17.744Z,1033.34
2023-05-20T11:00:17.712Z,1033.31
2023-05-20T11:01:17.732Z,1033.35
2023-05-20T11:02:17.708Z,1033.31
2023-05-20T11:03:17.810Z,1033.32
2023-05-20T11:04:17.901Z,1033.31
2023-05-20T11:05:17.732Z,1033.29
2023-05-20T11:06:18.614Z,1033.30
2023-05-20T11:07:17.718Z,1033.27
2023-05-20T11:08:28.658Z,1033.30
2023-05-20T11:09:17.732Z,1033.31
2023-05-20T11:10:17.719Z,1033.27
2023-05-20T11:11:17.723Z,1033.31
2023-05-20T11:12:17.752Z,1033.25
2023-05-20T11:13:17.825Z,1033.31
2023-05-20T11:14:17.731Z,1033.32
2023-05-20T11:15:17.722Z,1033.30
2023-05-20T11:16:17.819Z,1033.25
2023-05-20T11:17:17.730Z,1033.24
2023-05-20T11:18:18.702Z,1033.25
2023-05-20T11:19:17.766Z,1033.14
2023-05-20T11:20:17.731Z,1033.17
2023-05-20T11:21:17.737Z,1033.19
2023-05-20T11:22:17.735Z,1033.16
2023-05-20T11:23:17.737Z,1033.13
2023-05-20T11:24:17.734Z,1033.09
2023-05-20T11:25:17.747Z,1033.11
2023-05-20T11:26:17.736Z,1033.09
2023-05-20T11:27:17.733Z,1033.07
2023-05-20T11:28:17.762Z,1033.05
2023-05-20T11:29:17.892Z,1033.01
2023-05-20T11:30:17.739Z,1033.01
2023-05-20T11:31:17.742Z,1032.96
2023-05-20T11:32:17.791Z,1032.96
2023-05-20T11:33:17.807Z,1032.99
2023-05-20T11:34:17.744Z,1032.96
2023-05-20T11:35:17.744Z,1032.92
2023-05-20T11:36:27.469Z,1032.97
2023-05-20T11:37:17.752Z,1032.97
2023-05-20T11:38:17.743Z,1032.96
2023-05-20T11:39:17.749Z,1032.97
2023-05-20T11:40:17.753Z,1032.94
2023-05-20T11:41:17.761Z,1032.94
2023-05-20T11:42:17.752Z,1032.92
2023-05-20T11:43:17.749Z,1032.91
2023-05-20T11:44:17.768Z,1032.93
2023-05-20T11:45:17.760Z,1032.94
2023-05-20T11:46:17.776Z,1032.87
2023-05-20T11:47:19.351Z,1032.91
2023-05-20T11:48:17.762Z,1032.90
2023-05-20T11:49:17.919Z,1032.88
2023-05-20T11:50:17.748Z,1032.85
2023-05-20T11:51:17.761Z,1032.86
2023-05-20T11:52:17.755Z,1032.86
2023-05-20T11:53:17.760Z,1032.81
2023-05-20T11:54:18.019Z,1032.86
2023-05-20T11:55:17.767Z,1032.82
2023-05-20T11:56:17.757Z,1032.79
2023-05-20T11:57:17.759Z,1032.78
2023-05-20T11:58:17.771Z,1032.81
2023-05-20T11:59:17.764Z,1032.76
2023-05-20T12:00:17.784Z,1032.80
2023-05-20T12:01:22.257Z,1032.80
2023-05-20T12:02:17.791Z,1032.76
2023-05-20T12:03:17.861Z,1032.78
2023-05-20T12:04:17.863Z,1032.79
2023-05-20T12:05:17.767Z,1032.78